Time;durP1;ratioP1;P1;durP2;ratioP2;P2;SDS_P1;SDS_P2;PMS_P1;PMS_P2;Temp;Humidity;BMP_temperature;BMP_pressure;BME280_temperature;BME280_humidity;BME280_pressure;Samples;Min_cycle;Max_cycle;Signal;HPM_P1;HPM_P2
2024/01/25 00:01:04;;;;;;;13.07;2.80;;;;;;;;;;4945883;28;99145;-76
2024/01/25 00:03:31;;;;;;;16.55;3.30;;;;;;;;;;4946308;28;99276;-76
2024/01/25 00:05:58;;;;;;;21.00;3.38;;;;;;;;;;4945025;28;99640;-75
2024/01/25 00:08:25;;;;;;;13.32;2.75;;;;;;;;;;4946136;28;99474;-75
2024/01/25 00:10:51;;;;;;;14.50;2.70;;;;;;;;;;4945904;28;99162;-75
2024/01/25 00:13:18;;;;;;;14.95;3.15;;;;;;;;;;4946183;28;98950;-75
2024/01/25 00:15:44;;;;;;;22.45;3.30;;;;;;;;;;4928129;28;99991;-76
2024/01/25 00:18:11;;;;;;;12.68;2.75;;;;;;;;;;4949335;28;98468;-76
2024/01/25 00:20:37;;;;;;;14.88;3.15;;;;;;;;;;4944718;28;99331;-76
2024/01/25 00:23:04;;;;;;;14.25;3.03;;;;;;;;;;4946478;28;98787;-76
2024/01/25 00:25:30;;;;;;;11.25;2.72;;;;;;;;;;4946162;28;99318;-76
2024/01/25 00:27:57;;;;;;;16.42;2.95;;;;;;;;;;4944906;28;99487;-75
2024/01/25 00:30:24;;;;;;;13.63;3.00;;;;;;;;;;4961805;28;98703;-76
2024/01/25 00:32:50;;;;;;;16.30;3.30;;;;;;;;;;4956565;28;99606;-76
2024/01/25 00:35:17;;;;;;;14.95;3.15;;;;;;;;;;4945954;28;100353;-76
2024/01/25 00:37:43;;;;;;;14.48;2.78;;;;;;;;;;4949308;28;98879;-75
2024/01/25 00:40:13;;;;;;;17.88;3.35;;;;;;;;;;4945761;28;100988;-75
2024/01/25 00:42:43;;;;;;;15.50;3.17;;;;;;;;;;4945724;28;98994;-74
2024/01/25 00:45:11;;;;;;;14.55;2.83;;;;;;;;;;4946173;28;99874;-75
2024/01/25 00:47:37;;;;;;;13.27;2.85;;;;;;;;;;4945106;28;99732;-75
2024/01/25 00:50:04;;;;;;;14.40;2.60;;;;;;;;;;4945915;28;98563;-75
2024/01/25 00:52:31;;;;;;;16.52;3.13;;;;;;;;;;4945325;28;98843;-75
2024/01/25 00:54:58;;;;;;;15.68;2.80;;;;;;;;;;4948675;28;99062;-75
2024/01/25 00:57:25;;;;;;;11.25;2.80;;;;;;;;;;4947550;28;98091;-75
2024/01/25 00:59:51;;;;;;;12.70;2.83;;;;;;;;;;4951758;28;98853;-75
2024/01/25 01:02:20;;;;;;;17.67;2.90;;;;;;;;;;4947670;28;98673;-75
2024/01/25 01:04:48;;;;;;;15.07;3.05;;;;;;;;;;4947734;28;99883;-75
2024/01/25 01:07:15;;;;;;;16.17;2.90;;;;;;;;;;4946568;28;102096;-76
2024/01/25 01:09:42;;;;;;;11.98;2.47;;;;;;;;;;4948974;28;98948;-76
2024/01/25 01:12:08;;;;;;;15.13;2.90;;;;;;;;;;4960622;28;99430;-76
2024/01/25 01:14:35;;;;;;;16.73;3.00;;;;;;;;;;4967698;28;99492;-75
2024/01/25 01:17:01;;;;;;;13.05;2.78;;;;;;;;;;4964359;28;98783;-75
2024/01/25 01:19:28;;;;;;;16.20;3.05;;;;;;;;;;4949598;28;98887;-76
2024/01/25 01:21:54;;;;;;;12.10;2.53;;;;;;;;;;4952173;28;98797;-75
2024/01/25 01:24:21;;;;;;;15.95;3.13;;;;;;;;;;4948810;28;98462;-75
2024/01/25 01:26:48;;;;;;;11.85;2.70;;;;;;;;;;4947204;28;99662;-76
2024/01/25 01:29:15;;;;;;;13.10;3.00;;;;;;;;;;4948033;28;99736;-76
2024/01/25 01:31:42;;;;;;;17.15;2.72;;;;;;;;;;4947932;28;100840;-76
2024/01/25 01:34:08;;;;;;;16.70;3.10;;;;;;;;;;4931106;28;99186;-75
2024/01/25 01:36:35;;;;;;;15.57;3.35;;;;;;;;;;4966623;28;99031;-76
2024/01/25 01:39:02;;;;;;;15.10;2.92;;;;;;;;;;4956646;28;99287;-76
2024/01/25 01:41:28;;;;;;;21.75;3.67;;;;;;;;;;4948654;28;99088;-75
2024/01/25 01:43:55;;;;;;;13.93;3.38;;;;;;;;;;4950756;28;98852;-77
2024/01/25 01:46:40;;;;;;;21.80;3.80;;;;;;;;;;4948339;28;98660;-77
2024/01/25 01:49:08;;;;;;;14.32;2.97;;;;;;;;;;4947702;28;98575;-77
2024/01/25 01:51:35;;;;;;;16.42;3.05;;;;;;;;;;4948403;28;100028;-77
2024/01/25 01:54:05;;;;;;;20.48;3.10;;;;;;;;;;4940152;28;100360;-77
2024/01/25 01:56:31;;;;;;;14.05;3.30;;;;;;;;;;4967370;28;98570;-77
2024/01/25 01:58:59;;;;;;;13.48;2.88;;;;;;;;;;4967659;28;99116;-76
2024/01/25 02:01:25;;;;;;;15.13;3.20;;;;;;;;;;4949970;28;100323;-76
2024/01/25 02:03:52;;;;;;;12.98;3.25;;;;;;;;;;4948076;28;98925;-76
2024/01/25 02:06:19;;;;;;;14.95;3.17;;;;;;;;;;4948751;28;99031;-76
2024/01/25 02:08:47;;;;;;;12.10;2.90;;;;;;;;;;4947233;28;99059;-75
2024/01/25 02:11:14;;;;;;;13.40;2.72;;;;;;;;;;4948757;28;98839;-76
2024/01/25 02:13:40;;;;;;;14.32;2.78;;;;;;;;;;4947866;28;99193;-76
2024/01/25 02:16:07;;;;;;;15.45;2.67;;;;;;;;;;4948306;28;98644;-76
2024/01/25 02:18:34;;;;;;;14.85;3.25;;;;;;;;;;4945911;28;99726;-75
2024/01/25 02:21:01;;;;;;;12.15;2.90;;;;;;;;;;4947389;28;100187;-73
2024/01/25 02:23:28;;;;;;;14.35;3.28;;;;;;;;;;4930571;28;100816;-76
2024/01/25 02:25:54;;;;;;;12.18;2.65;;;;;;;;;;4951145;28;98877;-73
2024/01/25 02:28:21;;;;;;;14.55;3.10;;;;;;;;;;4947664;28;99050;-75
2024/01/25 02:30:48;;;;;;;12.48;2.78;;;;;;;;;;4947471;28;99381;-75
2024/01/25 02:33:14;;;;;;;13.68;3.25;;;;;;;;;;4947384;28;99468;-75
2024/01/25 02:35:41;;;;;;;14.68;3.15;;;;;;;;;;4947657;28;98380;-75
2024/01/25 02:38:08;;;;;;;16.67;3.20;;;;;;;;;;4947475;28;99262;-75
2024/01/25 02:40:34;;;;;;;16.25;2.85;;;;;;;;;;4947059;28;99280;-75
2024/01/25 02:43:01;;;;;;;23.90;3.53;;;;;;;;;;4948241;28;99324;-76
2024/01/25 02:45:27;;;;;;;14.82;3.15;;;;;;;;;;4948267;28;101023;-75
2024/01/25 02:47:54;;;;;;;15.43;2.88;;;;;;;;;;4950349;28;99314;-75
2024/01/25 02:50:22;;;;;;;15.48;2.80;;;;;;;;;;4947102;28;99055;-75
2024/01/25 02:52:49;;;;;;;12.82;2.70;;;;;;;;;;4946697;28;99089;-73
2024/01/25 02:55:18;;;;;;;15.10;2.90;;;;;;;;;;4938400;28;99032;-74
2024/01/25 02:57:45;;;;;;;15.07;3.03;;;;;;;;;;4946821;28;99255;-73
2024/01/25 03:00:12;;;;;;;15.63;2.92;;;;;;;;;;4929321;28;100407;-73
2024/01/25 03:02:38;;;;;;;12.90;2.92;;;;;;;;;;4946038;28;98917;-74
2024/01/25 03:05:05;;;;;;;14.60;3.00;;;;;;;;;;4945842;28;98866;-74
2024/01/25 03:07:32;;;;;;;12.43;3.03;;;;;;;;;;4945988;28;100462;-73
2024/01/25 03:09:58;;;;;;;14.63;2.92;;;;;;;;;;4950303;28;98476;-73
2024/01/25 03:12:25;;;;;;;14.05;2.97;;;;;;;;;;4926546;28;100890;-73
2024/01/25 03:14:51;;;;;;;13.95;2.90;;;;;;;;;;4926940;28;99019;-73
2024/01/25 03:17:18;;;;;;;14.07;3.15;;;;;;;;;;4927320;28;99898;-73
2024/01/25 03:19:44;;;;;;;17.70;3.15;;;;;;;;;;4966279;28;99121;-73
2024/01/25 03:22:11;;;;;;;18.17;2.80;;;;;;;;;;4951588;28;100013;-73
2024/01/25 03:24:38;;;;;;;13.25;2.75;;;;;;;;;;4928355;28;98963;-73
2024/01/25 03:27:05;;;;;;;15.00;3.33;;;;;;;;;;4945380;28;100391;-73
2024/01/25 03:29:32;;;;;;;15.63;3.00;;;;;;;;;;4946086;28;98502;-73
2024/01/25 03:31:58;;;;;;;17.00;2.83;;;;;;;;;;4931010;28;100747;-74
2024/01/25 03:34:26;;;;;;;15.88;3.05;;;;;;;;;;4945242;28;99247;-73
2024/01/25 03:36:54;;;;;;;14.65;3.40;;;;;;;;;;4945310;28;99907;-73
2024/01/25 03:39:20;;;;;;;13.07;3.05;;;;;;;;;;4959354;28;100207;-73
2024/01/25 03:41:47;;;;;;;14.90;3.28;;;;;;;;;;4966177;28;98652;-73
2024/01/25 03:44:13;;;;;;;13.52;3.00;;;;;;;;;;4965817;28;99978;-73
2024/01/25 03:46:40;;;;;;;11.57;2.50;;;;;;;;;;4954125;28;99398;-73
2024/01/25 03:49:06;;;;;;;15.57;2.58;;;;;;;;;;4947105;28;97811;-73
2024/01/25 03:51:33;;;;;;;12.60;2.80;;;;;;;;;;4946333;28;99194;-73
2024/01/25 03:53:59;;;;;;;13.68;2.50;;;;;;;;;;4949673;28;99739;-73
2024/01/25 03:56:26;;;;;;;15.50;2.70;;;;;;;;;;4945790;28;101207;-73
2024/01/25 03:58:53;;;;;;;14.07;2.58;;;;;;;;;;4945135;28;104429;-73
2024/01/25 04:01:19;;;;;;;14.32;2.65;;;;;;;;;;4943911;28;98782;-73
2024/01/25 04:03:46;;;;;;;15.68;2.90;;;;;;;;;;4962492;28;98794;-74
2024/01/25 04:06:13;;;;;;;14.18;2.80;;;;;;;;;;4945672;28;99141;-73
2024/01/25 04:08:39;;;;;;;13.77;2.90;;;;;;;;;;4945713;28;98866;-74
2024/01/25 04:11:07;;;;;;;18.58;3.03;;;;;;;;;;4946392;28;99411;-74
2024/01/25 04:13:34;;;;;;;14.05;2.85;;;;;;;;;;4946302;28;98584;-74
2024/01/25 04:16:01;;;;;;;12.00;2.50;;;;;;;;;;4949889;28;98624;-73
2024/01/25 04:18:27;;;;;;;11.93;2.67;;;;;;;;;;4945697;28;99125;-74
2024/01/25 04:20:54;;;;;;;13.40;3.05;;;;;;;;;;4945048;28;99894;-74
2024/01/25 04:23:20;;;;;;;15.30;2.97;;;;;;;;;;4946190;28;99548;-73
2024/01/25 04:25:48;;;;;;;13.10;2.67;;;;;;;;;;4945804;28;99119;-73
2024/01/25 04:28:15;;;;;;;16.45;3.50;;;;;;;;;;4944787;28;98955;-74
2024/01/25 04:30:41;;;;;;;17.85;3.03;;;;;;;;;;4956027;28;98550;-74
2024/01/25 04:33:08;;;;;;;11.70;2.72;;;;;;;;;;4969030;28;99117;-74
2024/01/25 04:35:35;;;;;;;12.93;2.55;;;;;;;;;;4961139;28;98709;-73
2024/01/25 04:38:02;;;;;;;11.65;2.65;;;;;;;;;;4952588;28;98509;-73
2024/01/25 04:40:28;;;;;;;12.48;2.88;;;;;;;;;;4969100;28;99319;-73
2024/01/25 04:42:55;;;;;;;16.95;2.97;;;;;;;;;;4968142;28;99234;-72
2024/01/25 04:45:21;;;;;;;13.77;2.88;;;;;;;;;;4968313;28;101289;-73
2024/01/25 04:47:48;;;;;;;15.82;3.03;;;;;;;;;;4968566;28;105512;-72
2024/01/25 04:50:14;;;;;;;15.00;2.88;;;;;;;;;;4969416;28;98923;-73
2024/01/25 04:52:41;;;;;;;14.07;3.20;;;;;;;;;;4967671;28;100198;-73
2024/01/25 04:55:08;;;;;;;10.85;2.88;;;;;;;;;;4968350;28;98585;-72
2024/01/25 04:57:34;;;;;;;15.07;2.65;;;;;;;;;;4933710;28;99945;-72
2024/01/25 05:00:01;;;;;;;27.88;3.10;;;;;;;;;;4949374;28;98689;-72
2024/01/25 05:02:28;;;;;;;16.30;2.92;;;;;;;;;;4948743;28;99918;-72
2024/01/25 05:04:54;;;;;;;15.82;2.92;;;;;;;;;;4947522;28;103615;-73
2024/01/25 05:07:21;;;;;;;16.52;2.72;;;;;;;;;;4948469;28;98629;-74
2024/01/25 05:09:56;;;;;;;12.75;3.00;;;;;;;;;;4948487;28;99738;-74
2024/01/25 05:12:22;;;;;;;13.57;2.50;;;;;;;;;;4947900;28;100044;-74
2024/01/25 05:14:49;;;;;;;13.57;2.75;;;;;;;;;;4948456;28;99901;-74
2024/01/25 05:17:16;;;;;;;15.32;2.65;;;;;;;;;;4948403;28;98918;-74
2024/01/25 05:19:42;;;;;;;12.02;2.53;;;;;;;;;;4951457;28;99660;-73
2024/01/25 05:22:09;;;;;;;13.38;3.22;;;;;;;;;;4947219;28;100128;-74
2024/01/25 05:24:35;;;;;;;14.13;2.80;;;;;;;;;;4947508;28;100853;-74
2024/01/25 05:27:02;;;;;;;12.60;2.58;;;;;;;;;;4949105;28;98028;-74
2024/01/25 05:29:28;;;;;;;15.13;3.00;;;;;;;;;;4949061;28;98827;-73
2024/01/25 05:31:55;;;;;;;13.23;2.80;;;;;;;;;;4946729;28;99925;-73
2024/01/25 05:34:22;;;;;;;15.75;2.72;;;;;;;;;;4949220;28;99849;-74
2024/01/25 05:36:49;;;;;;;14.80;3.00;;;;;;;;;;4967598;28;99692;-73
2024/01/25 05:39:17;;;;;;;13.88;2.88;;;;;;;;;;4955181;28;99282;-73
2024/01/25 05:41:46;;;;;;;12.90;2.60;;;;;;;;;;4954241;28;98760;-73
2024/01/25 05:44:12;;;;;;;16.25;3.10;;;;;;;;;;4967030;28;99222;-73
2024/01/25 05:46:39;;;;;;;11.23;2.83;;;;;;;;;;4949554;28;99023;-73
2024/01/25 05:49:05;;;;;;;11.50;2.60;;;;;;;;;;4967871;28;99087;-73
2024/01/25 05:51:32;;;;;;;18.00;2.75;;;;;;;;;;4966227;28;98425;-73
2024/01/25 05:53:59;;;;;;;11.77;2.42;;;;;;;;;;4950876;28;99010;-73
2024/01/25 05:56:25;;;;;;;12.23;2.53;;;;;;;;;;4947841;28;98850;-73
2024/01/25 05:58:52;;;;;;;13.63;3.17;;;;;;;;;;4944716;28;101372;-74
2024/01/25 06:01:19;;;;;;;11.27;2.53;;;;;;;;;;4948142;28;98629;-73
2024/01/25 06:03:45;;;;;;;14.40;2.50;;;;;;;;;;4950701;28;100537;-75
2024/01/25 06:06:12;;;;;;;14.55;2.78;;;;;;;;;;4946725;28;98924;-74
2024/01/25 06:08:39;;;;;;;12.93;2.40;;;;;;;;;;4947406;28;98946;-73
2024/01/25 06:11:05;;;;;;;14.60;2.83;;;;;;;;;;4947095;28;100207;-74
2024/01/25 06:13:32;;;;;;;15.85;2.85;;;;;;;;;;4947544;28;99034;-74
2024/01/25 06:15:59;;;;;;;11.60;2.67;;;;;;;;;;4948381;28;98870;-74
2024/01/25 06:18:26;;;;;;;13.10;2.92;;;;;;;;;;4946585;28;99205;-74
2024/01/25 06:20:56;;;;;;;14.52;2.75;;;;;;;;;;4928497;28;98764;-75
2024/01/25 06:23:22;;;;;;;12.75;2.60;;;;;;;;;;4946341;28;99355;-73
2024/01/25 06:25:49;;;;;;;14.40;3.10;;;;;;;;;;4950562;28;99269;-74
2024/01/25 06:28:16;;;;;;;;;;;;;;;;;;4947274;28;98911;-74
2024/01/25 06:30:43;;;;;;;11.65;2.42;;;;;;;;;;4947180;28;107413;-74
2024/01/25 06:33:09;;;;;;;12.02;2.97;;;;;;;;;;4947505;28;98790;-74
2024/01/25 06:35:36;;;;;;;12.75;2.90;;;;;;;;;;4946703;28;98876;-74
2024/01/25 06:38:03;;;;;;;14.48;2.80;;;;;;;;;;4949467;28;99325;-74
2024/01/25 06:40:29;;;;;;;10.65;2.35;;;;;;;;;;4965500;28;98226;-74
2024/01/25 06:42:56;;;;;;;17.85;2.80;;;;;;;;;;4966036;28;101155;-74
2024/01/25 06:45:22;;;;;;;14.38;2.88;;;;;;;;;;4952422;28;99126;-74
2024/01/25 06:47:49;;;;;;;14.00;2.80;;;;;;;;;;4966097;28;100163;-74
2024/01/25 06:50:16;;;;;;;14.43;2.58;;;;;;;;;;4949679;28;99614;-73
2024/01/25 06:52:43;;;;;;;15.57;2.72;;;;;;;;;;4945702;28;99938;-73
2024/01/25 06:55:10;;;;;;;14.90;2.92;;;;;;;;;;4947529;28;99043;-74
2024/01/25 06:57:38;;;;;;;13.07;2.67;;;;;;;;;;4945450;28;99901;-74
2024/01/25 07:00:05;;;;;;;11.65;2.25;;;;;;;;;;4947101;28;98677;-74
2024/01/25 07:02:32;;;;;;;13.45;2.88;;;;;;;;;;4946057;28;99841;-74
2024/01/25 07:05:01;;;;;;;11.30;2.67;;;;;;;;;;4929752;28;98456;-74
2024/01/25 07:07:29;;;;;;;13.90;2.92;;;;;;;;;;4950194;28;99022;-72
2024/01/25 07:09:55;;;;;;;13.90;2.70;;;;;;;;;;4946640;28;99605;-73
2024/01/25 07:12:22;;;;;;;15.82;2.83;;;;;;;;;;4945987;28;99600;-73
2024/01/25 07:14:48;;;;;;;15.13;2.70;;;;;;;;;;4946364;28;99608;-73
2024/01/25 07:17:15;;;;;;;16.25;2.78;;;;;;;;;;4945655;28;100208;-73
2024/01/25 07:19:41;;;;;;;12.85;2.40;;;;;;;;;;4945341;28;98795;-73
2024/01/25 07:22:08;;;;;;;14.43;3.08;;;;;;;;;;4946773;28;99404;-72
2024/01/25 07:24:35;;;;;;;12.35;3.00;;;;;;;;;;4928527;28;101776;-72
2024/01/25 07:27:01;;;;;;;12.48;2.72;;;;;;;;;;4946595;28;98838;-72
2024/01/25 07:29:28;;;;;;;14.43;2.72;;;;;;;;;;4949750;28;99855;-70
2024/01/25 07:31:55;;;;;;;15.30;3.00;;;;;;;;;;4950464;28;98802;-72
2024/01/25 07:34:22;;;;;;;13.05;2.83;;;;;;;;;;4945933;28;100287;-71
2024/01/25 07:36:48;;;;;;;13.70;2.55;;;;;;;;;;4944586;28;100466;-72
2024/01/25 07:39:15;;;;;;;11.63;2.90;;;;;;;;;;4946010;28;98850;-72
2024/01/25 07:41:41;;;;;;;13.18;3.13;;;;;;;;;;4945920;28;100269;-72
2024/01/25 07:44:08;;;;;;;13.23;2.70;;;;;;;;;;4945743;28;99277;-72
2024/01/25 07:46:36;;;;;;;13.68;2.75;;;;;;;;;;4943189;28;98924;-72
2024/01/25 07:49:03;;;;;;;13.25;2.63;;;;;;;;;;4944136;28;100178;-72
2024/01/25 07:51:30;;;;;;;14.60;2.97;;;;;;;;;;4947098;28;99443;-72
2024/01/25 07:53:56;;;;;;;12.68;2.95;;;;;;;;;;4944471;28;99808;-73
2024/01/25 07:56:23;;;;;;;10.63;2.60;;;;;;;;;;4944399;28;99470;-71
2024/01/25 07:58:51;;;;;;;15.50;2.80;;;;;;;;;;4944362;28;98739;-71
2024/01/25 08:01:18;;;;;;;12.23;2.80;;;;;;;;;;4944498;28;99837;-71
2024/01/25 08:03:45;;;;;;;10.82;2.70;;;;;;;;;;4944736;28;99187;-71
2024/01/25 08:06:12;;;;;;;10.23;2.42;;;;;;;;;;4944804;28;98909;-71
2024/01/25 08:08:39;;;;;;;12.50;2.60;;;;;;;;;;4941133;28;100230;-73
2024/01/25 08:11:06;;;;;;;10.30;2.47;;;;;;;;;;4944939;28;100320;-72
2024/01/25 08:13:32;;;;;;;9.75;2.45;;;;;;;;;;4950971;28;99083;-72
2024/01/25 08:16:01;;;;;;;15.70;2.80;;;;;;;;;;4945176;28;99066;-71
2024/01/25 08:18:29;;;;;;;11.40;2.70;;;;;;;;;;4945461;28;98101;-71
2024/01/25 08:20:56;;;;;;;10.73;2.30;;;;;;;;;;4944606;28;104071;-71
2024/01/25 08:23:23;;;;;;;9.95;2.65;;;;;;;;;;4944921;28;100179;-72
2024/01/25 08:25:50;;;;;;;12.35;2.50;;;;;;;;;;4945295;28;99497;-71
2024/01/25 08:28:16;;;;;;;11.82;2.42;;;;;;;;;;4945075;28;99561;-71
2024/01/25 08:30:43;;;;;;;10.90;2.45;;;;;;;;;;4952213;28;100321;-72
2024/01/25 08:33:10;;;;;;;13.35;2.63;;;;;;;;;;4964828;28;98814;-72
2024/01/25 08:35:36;;;;;;;13.23;2.72;;;;;;;;;;4955856;28;98932;-72
2024/01/25 08:38:03;;;;;;;10.18;2.53;;;;;;;;;;4948737;28;99539;-72
2024/01/25 08:40:30;;;;;;;9.80;2.72;;;;;;;;;;4964324;28;100263;-71
2024/01/25 08:42:57;;;;;;;10.60;2.75;;;;;;;;;;4946481;28;98319;-71
2024/01/25 08:45:23;;;;;;;8.45;2.30;;;;;;;;;;4945399;28;99967;-71
2024/01/25 08:47:51;;;;;;;9.32;2.53;;;;;;;;;;4944824;28;98767;-72
2024/01/25 08:50:18;;;;;;;9.65;2.50;;;;;;;;;;4944038;28;100939;-71
2024/01/25 08:52:45;;;;;;;9.18;2.67;;;;;;;;;;4944267;28;98987;-70
2024/01/25 08:55:11;;;;;;;11.65;2.42;;;;;;;;;;4947987;28;98901;-72
2024/01/25 08:57:39;;;;;;;8.43;2.15;;;;;;;;;;4944688;28;98577;-71
2024/01/25 09:00:12;;;;;;;8.57;2.13;;;;;;;;;;4944884;28;99005;-73
2024/01/25 09:02:39;;;;;;;11.73;2.67;;;;;;;;;;4944519;28;99246;-73
2024/01/25 09:05:06;;;;;;;9.68;2.72;;;;;;;;;;4945080;28;99022;-73
2024/01/25 09:07:33;;;;;;;9.75;2.45;;;;;;;;;;4944028;28;98888;-73
2024/01/25 09:10:00;;;;;;;10.07;2.33;;;;;;;;;;4942890;28;99477;-72
2024/01/25 09:12:27;;;;;;;11.05;2.58;;;;;;;;;;4943984;28;99082;-72
2024/01/25 09:14:53;;;;;;;8.63;2.25;;;;;;;;;;4945236;28;103530;-72
2024/01/25 09:17:22;;;;;;;9.07;2.90;;;;;;;;;;4944931;28;99199;-72
2024/01/25 09:19:52;;;;;;;11.40;2.75;;;;;;;;;;4960385;28;99145;-72
2024/01/25 09:22:19;;;;;;;10.98;2.83;;;;;;;;;;4946370;28;99231;-72
2024/01/25 09:24:46;;;;;;;9.82;2.33;;;;;;;;;;4946240;28;99316;-72
2024/01/25 09:27:13;;;;;;;9.50;2.55;;;;;;;;;;4940714;28;106000;-72
2024/01/25 09:29:41;;;;;;;11.30;2.70;;;;;;;;;;4952621;28;100029;-73
2024/01/25 09:32:08;;;;;;;10.60;2.45;;;;;;;;;;4947390;28;98091;-72
2024/01/25 09:34:38;;;;;;;10.27;2.35;;;;;;;;;;4950413;28;99636;-72
2024/01/25 09:37:06;;;;;;;9.57;2.50;;;;;;;;;;4950412;28;99091;-72
2024/01/25 09:39:35;;;;;;;9.52;2.60;;;;;;;;;;4953243;28;99668;-73
2024/01/25 09:42:02;;;;;;;8.82;2.30;;;;;;;;;;4956831;28;99500;-73
2024/01/25 09:44:30;;;;;;;9.95;2.42;;;;;;;;;;4950653;28;98954;-72
2024/01/25 09:46:57;;;;;;;9.30;2.45;;;;;;;;;;4929813;28;99413;-74
2024/01/25 09:49:23;;;;;;;11.20;2.65;;;;;;;;;;4947666;28;99353;-74
2024/01/25 09:51:50;;;;;;;11.27;2.72;;;;;;;;;;4947315;28;98664;-73
2024/01/25 09:54:17;;;;;;;10.73;2.63;;;;;;;;;;4930113;28;98881;-73
2024/01/25 09:56:44;;;;;;;11.90;2.90;;;;;;;;;;4946799;28;99465;-72
2024/01/25 09:59:11;;;;;;;10.85;2.83;;;;;;;;;;4946754;28;99001;-72
2024/01/25 10:01:38;;;;;;;10.15;2.60;;;;;;;;;;4949861;28;98815;-71
2024/01/25 10:04:06;;;;;;;9.98;2.45;;;;;;;;;;4929378;28;99740;-72
2024/01/25 10:06:33;;;;;;;12.23;3.00;;;;;;;;;;4944683;28;100167;-71
2024/01/25 10:09:00;;;;;;;10.55;2.75;;;;;;;;;;4947982;28;99280;-72
2024/01/25 10:11:29;;;;;;;10.73;2.78;;;;;;;;;;4953028;28;98953;-73
2024/01/25 10:14:00;;;;;;;10.60;2.40;;;;;;;;;;4947804;28;98706;-73
2024/01/25 10:16:27;;;;;;;10.15;2.58;;;;;;;;;;4946778;28;99284;-72
2024/01/25 10:18:54;;;;;;;12.25;2.80;;;;;;;;;;4926431;28;99004;-72
2024/01/25 10:21:21;;;;;;;10.90;2.90;;;;;;;;;;4945788;28;99109;-72
2024/01/25 10:23:48;;;;;;;;;;;;;;;;;;4950741;28;100134;-72
2024/01/25 10:26:16;;;;;;;10.02;2.70;;;;;;;;;;4947628;28;99714;-72
2024/01/25 10:28:50;;;;;;;11.98;2.88;;;;;;;;;;4945813;28;100669;-71
2024/01/25 10:31:17;;;;;;;10.18;2.92;;;;;;;;;;4925831;28;98701;-71
2024/01/25 10:33:44;;;;;;;10.60;3.08;;;;;;;;;;4930919;28;100032;-72
2024/01/25 10:36:12;;;;;;;11.73;3.17;;;;;;;;;;4960873;28;99317;-72
2024/01/25 10:38:40;;;;;;;14.18;3.20;;;;;;;;;;4939605;28;99383;-71
2024/01/25 10:41:07;;;;;;;12.27;3.28;;;;;;;;;;4939693;28;100253;-72
2024/01/25 10:43:34;;;;;;;12.02;2.90;;;;;;;;;;4944216;28;100366;-72
2024/01/25 10:46:01;;;;;;;11.98;2.90;;;;;;;;;;4949515;28;98330;-72
2024/01/25 10:48:31;;;;;;;11.60;2.90;;;;;;;;;;4942841;28;99616;-71
2024/01/25 10:50:59;;;;;;;12.68;3.25;;;;;;;;;;4945813;28;99001;-73
2024/01/25 10:53:26;;;;;;;14.35;3.45;;;;;;;;;;4943664;28;99956;-73
2024/01/25 10:55:53;;;;;;;12.75;3.13;;;;;;;;;;4927774;28;102005;-72
2024/01/25 10:58:19;;;;;;;11.57;2.72;;;;;;;;;;4946094;28;99077;-72
2024/01/25 11:00:55;;;;;;;12.20;2.72;;;;;;;;;;4944706;28;99105;-72
2024/01/25 11:03:26;;;;;;;11.90;3.15;;;;;;;;;;4944784;28;100148;-72
2024/01/25 11:05:54;;;;;;;9.88;2.92;;;;;;;;;;4966282;28;99316;-72
2024/01/25 11:08:21;;;;;;;14.23;3.10;;;;;;;;;;4964754;28;100068;-71
2024/01/25 11:10:49;;;;;;;14.50;2.67;;;;;;;;;;4961714;28;97791;-72
2024/01/25 11:13:16;;;;;;;11.77;3.17;;;;;;;;;;4944777;28;98926;-72
2024/01/25 11:15:43;;;;;;;9.52;2.63;;;;;;;;;;4933401;28;100594;-72
2024/01/25 11:18:09;;;;;;;11.90;2.92;;;;;;;;;;4944828;28;99587;-72
2024/01/25 11:20:37;;;;;;;12.65;3.13;;;;;;;;;;4944706;28;99486;-72
2024/01/25 11:23:05;;;;;;;13.40;2.88;;;;;;;;;;4943880;28;100205;-73
2024/01/25 11:25:32;;;;;;;10.90;2.95;;;;;;;;;;4945710;28;98815;-73
2024/01/25 11:28:00;;;;;;;11.40;3.05;;;;;;;;;;4948074;28;98900;-73
2024/01/25 11:30:28;;;;;;;12.95;3.17;;;;;;;;;;4950092;28;98602;-73
2024/01/25 11:32:55;;;;;;;;;;;;;;;;;;4965317;28;103713;-73
2024/01/25 11:35:22;;;;;;;9.38;2.78;;;;;;;;;;4956851;28;112523;-72
2024/01/25 11:37:52;;;;;;;10.15;2.33;;;;;;;;;;4947403;28;98606;-73
2024/01/25 11:40:19;;;;;;;10.85;2.78;;;;;;;;;;4965671;28;98968;-73
2024/01/25 11:42:49;;;;;;;12.00;2.90;;;;;;;;;;4963663;28;99940;-73
2024/01/25 11:45:17;;;;;;;11.75;3.30;;;;;;;;;;4951205;28;99375;-73
2024/01/25 11:47:44;;;;;;;9.80;2.55;;;;;;;;;;4945911;28;100158;-73
2024/01/25 11:50:11;;;;;;;11.75;2.90;;;;;;;;;;4948569;28;100070;-73
2024/01/25 11:52:38;;;;;;;10.02;2.80;;;;;;;;;;4944951;28;99978;-73
2024/01/25 11:55:09;;;;;;;10.07;2.83;;;;;;;;;;4927945;28;99445;-73
2024/01/25 11:57:36;;;;;;;8.82;2.35;;;;;;;;;;4955837;28;98613;-73
2024/01/25 12:00:04;;;;;;;9.45;2.60;;;;;;;;;;4947046;28;99210;-72
2024/01/25 12:02:33;;;;;;;9.50;2.50;;;;;;;;;;4963815;28;98890;-72
2024/01/25 12:05:02;;;;;;;8.90;2.78;;;;;;;;;;4961260;28;100343;-72
2024/01/25 12:07:32;;;;;;;9.48;2.53;;;;;;;;;;4930437;28;103177;-73
2024/01/25 12:10:03;;;;;;;9.63;2.40;;;;;;;;;;4964982;28;100320;-73
2024/01/25 12:12:30;;;;;;;10.95;2.95;;;;;;;;;;4961583;28;98535;-71
2024/01/25 12:15:00;;;;;;;8.60;2.60;;;;;;;;;;4964395;28;100147;-72
2024/01/25 12:17:28;;;;;;;10.10;2.67;;;;;;;;;;4963823;28;99101;-72
2024/01/25 12:19:55;;;;;;;11.65;2.70;;;;;;;;;;4965245;28;98860;-73
2024/01/25 12:22:22;;;;;;;11.38;2.42;;;;;;;;;;4964156;28;99454;-72
2024/01/25 12:24:50;;;;;;;11.15;2.80;;;;;;;;;;4964936;28;98044;-72
2024/01/25 12:27:26;;;;;;;11.27;2.60;;;;;;;;;;4963994;28;100121;-72
2024/01/25 12:29:53;;;;;;;8.85;2.72;;;;;;;;;;4963245;28;99995;-72
2024/01/25 12:32:20;;;;;;;10.10;2.75;;;;;;;;;;4944125;28;99344;-72
2024/01/25 12:34:54;;;;;;;9.65;2.50;;;;;;;;;;4946097;28;99663;-72
2024/01/25 12:37:21;;;;;;;10.50;2.97;;;;;;;;;;4945235;28;99324;-73
2024/01/25 12:39:48;;;;;;;11.85;2.70;;;;;;;;;;4932333;28;100019;-73
2024/01/25 12:42:15;;;;;;;10.38;2.72;;;;;;;;;;4944841;28;99038;-73
2024/01/25 12:44:42;;;;;;;9.13;2.72;;;;;;;;;;4944105;28;98836;-73
2024/01/25 12:47:09;;;;;;;10.68;2.67;;;;;;;;;;4945412;28;99053;-73
2024/01/25 12:49:36;;;;;;;9.77;2.65;;;;;;;;;;4945645;28;99331;-73
2024/01/25 12:52:02;;;;;;;12.27;2.90;;;;;;;;;;4948411;28;98598;-73
2024/01/25 12:54:29;;;;;;;11.18;2.67;;;;;;;;;;4949592;28;100433;-71
2024/01/25 12:56:57;;;;;;;9.77;2.67;;;;;;;;;;4947743;28;99272;-72
2024/01/25 12:59:23;;;;;;;10.73;3.00;;;;;;;;;;4948349;28;99512;-72
2024/01/25 13:01:50;;;;;;;9.65;2.70;;;;;;;;;;4947329;28;100225;-72
2024/01/25 13:04:17;;;;;;;9.50;2.58;;;;;;;;;;4942554;28;98965;-72
2024/01/25 13:06:44;;;;;;;8.85;2.45;;;;;;;;;;4928289;28;99205;-71
2024/01/25 13:09:11;;;;;;;9.48;2.55;;;;;;;;;;4938553;28;99047;-72
2024/01/25 13:11:37;;;;;;;9.00;2.38;;;;;;;;;;4947778;28;99062;-72
2024/01/25 13:14:04;;;;;;;11.43;2.47;;;;;;;;;;4948544;28;99928;-72
2024/01/25 13:16:31;;;;;;;10.60;3.00;;;;;;;;;;4950186;28;100626;-71
2024/01/25 13:18:58;;;;;;;11.25;2.92;;;;;;;;;;4947958;28;99804;-71
2024/01/25 13:21:24;;;;;;;10.82;2.35;;;;;;;;;;4947070;28;99836;-72
2024/01/25 13:23:51;;;;;;;9.35;2.60;;;;;;;;;;4947790;28;99421;-72
2024/01/25 13:26:17;;;;;;;10.32;2.63;;;;;;;;;;4947621;28;99827;-72
2024/01/25 13:28:44;;;;;;;9.52;2.63;;;;;;;;;;4947010;28;99090;-71
2024/01/25 13:31:10;;;;;;;9.35;2.80;;;;;;;;;;4958761;28;98531;-71
2024/01/25 13:33:37;;;;;;;11.65;2.78;;;;;;;;;;4967809;28;98852;-71
2024/01/25 13:36:08;;;;;;;8.85;2.22;;;;;;;;;;4950942;28;98923;-72
2024/01/25 13:38:35;;;;;;;9.20;2.58;;;;;;;;;;4950877;28;97980;-71
2024/01/25 13:41:01;;;;;;;8.25;2.75;;;;;;;;;;4947189;28;99063;-73
2024/01/25 13:43:28;;;;;;;9.35;2.60;;;;;;;;;;4947006;28;98488;-73
2024/01/25 13:45:54;;;;;;;11.25;2.88;;;;;;;;;;4947399;28;99254;-72
2024/01/25 13:48:21;;;;;;;12.10;2.90;;;;;;;;;;4947267;28;100138;-72
2024/01/25 13:50:48;;;;;;;11.48;2.80;;;;;;;;;;4949716;28;98835;-72
2024/01/25 13:53:14;;;;;;;13.23;3.08;;;;;;;;;;4947476;28;99101;-73
2024/01/25 13:55:41;;;;;;;9.80;2.90;;;;;;;;;;4946647;28;99339;-73
2024/01/25 13:58:08;;;;;;;9.15;2.63;;;;;;;;;;4947122;28;98833;-73
2024/01/25 14:00:34;;;;;;;10.43;2.67;;;;;;;;;;4949883;28;99335;-72
2024/01/25 14:03:01;;;;;;;10.75;2.70;;;;;;;;;;4948007;28;98373;-73
2024/01/25 14:05:27;;;;;;;10.38;2.80;;;;;;;;;;4951719;28;98822;-72
2024/01/25 14:07:54;;;;;;;11.13;3.30;;;;;;;;;;4947264;28;99899;-72
2024/01/25 14:10:21;;;;;;;9.40;2.70;;;;;;;;;;4946964;28;100021;-72
2024/01/25 14:12:47;;;;;;;10.30;2.63;;;;;;;;;;4945919;28;100532;-73
2024/01/25 14:15:14;;;;;;;8.55;2.63;;;;;;;;;;4946530;28;100186;-73
2024/01/25 14:17:41;;;;;;;10.85;2.65;;;;;;;;;;4947036;28;99117;-73
2024/01/25 14:20:08;;;;;;;11.38;2.75;;;;;;;;;;4946526;28;100075;-72
2024/01/25 14:22:35;;;;;;;10.40;2.50;;;;;;;;;;4948921;28;99333;-72
2024/01/25 14:25:03;;;;;;;10.65;2.60;;;;;;;;;;4946212;28;99048;-73
2024/01/25 14:27:30;;;;;;;11.27;3.10;;;;;;;;;;4945073;28;99525;-73
2024/01/25 14:29:56;;;;;;;9.55;2.92;;;;;;;;;;4946998;28;98926;-73